Terminal Aerodrome Forecast
Issued by NWS

Current Version | Previous Version | Text Only | Print | Product List | Glossary Off
Versions: 1 2 3 4 5 6 7 8 9 10 11 12 13 14 15 16 17 18

838
FTUS41 KPBZ 250400 AAA
TAFHLG
TAF AMD
KHLG 250400Z 2504/2524 19005KT P6SM BKN250
     FM250700 21008KT 6SM -RA BKN040
      TEMPO 2508/2510 3SM -TSRA BKN025CB
     FM251600 22007KT P6SM SCT035=

USA.gov is the U.S. government's official web portal to all federal, state and local government web resources and services.